ICAO code: LHPR | IATA code: QGY | AFTN: LHPRZPZX | magyar | deutsch
Weather : 2019-05-26 16:10 (UTC) | Temperature: 25.1 °C | QNH: 1013.9 hPa | Wind: 1.5 m/s | More
Live ATC LHPR
Live webcam

Győr-Pér Airport Meteor data

Metar:
METAR LHPR 261545Z 18004KT 140V300 9999 SCT053TCU SCT083 25/12 Q101


Taf:
TAF LHPR 261415Z 2615/2624 VRB02KT 9999 FEW040
PROB40 TEMPO 2615/2620 VRB15G30KT 3000 TSRA


Present weather:
Cloud development not observed or observable
Date stamp: 2019-05-26 16:10:00 UTC
Air Temp:
25.1 °C
 
Dewpoint:
13.6 °C
 
Rel. Humidity:
49%
 
QNH:
1013.9 hPa
 
Wind speed:
1.5 m/s
Max:
3.1 m/s
Wind direction:
170°
 
Precipitation (1 hour):
0.0 mm
 
Visibility:
20000 m
 
RVR:
>1500 m RWY30
 
1st cloud layer quantity:
0 octa
 
1st cloud layer base:
m


Az adatokat szolgáltatja
az Országos Meteorológiai Szolgálat
Győr-Pér Airport | H 9099 Pér, Repülőtér | Tel: +36/96/559-200 | Fax: +36/96/559-202

ICAO code: LHPR | IATA code: QGY | AFTN: LHPRZPZX


weboldal tervezés: IRQ